Time;durP1;ratioP1;P1;durP2;ratioP2;P2;SDS_P1;SDS_P2;PMS_P1;PMS_P2;Temp;Humidity;BMP_temperature;BMP_pressure;BME280_temperature;BME280_humidity;BME280_pressure;Samples;Min_cycle;Max_cycle;Signal;HPM_P1;HPM_P2
2022/08/13 00:02:00;;;;;;;7.60;6.90;;;;;;;;;;5072022;28;20024;-86
2022/08/13 00:04:27;;;;;;;8.35;7.65;;;;;;;;;;5073051;28;20016;-86
2022/08/13 00:07:06;;;;;;;8.88;7.75;;;;;;;;;;5071908;28;20025;-86
2022/08/13 00:09:32;;;;;;;7.88;7.03;;;;;;;;;;5072031;28;20033;-86
2022/08/13 00:14:45;;;;;;;;;;;;;;;;;;5073549;28;20081;-87
2022/08/13 00:17:12;;;;;;;8.48;7.63;;;;;;;;;;5071750;28;20045;-86
2022/08/13 00:19:40;;;;;;;8.25;7.55;;;;;;;;;;5071618;28;20083;-85
2022/08/13 00:22:06;;;;;;;15.02;13.63;;;;;;;;;;5072645;28;20021;-86
2022/08/13 00:24:32;;;;;;;8.02;7.32;;;;;;;;;;5071689;28;20025;-86
2022/08/13 00:26:59;;;;;;;11.73;10.68;;;;;;;;;;5071267;28;20110;-86
2022/08/13 00:29:26;;;;;;;46.30;41.58;;;;;;;;;;5071354;28;20032;-85
2022/08/13 00:31:52;;;;;;;10.00;9.10;;;;;;;;;;5071240;28;20044;-86
2022/08/13 00:34:18;;;;;;;12.98;8.00;;;;;;;;;;5071413;28;20541;-86
2022/08/13 00:36:47;;;;;;;8.40;7.07;;;;;;;;;;5071457;28;20024;-86
2022/08/13 00:39:13;;;;;;;7.85;7.13;;;;;;;;;;5072569;28;20016;-85
2022/08/13 00:41:44;;;;;;;7.60;6.90;;;;;;;;;;5072561;28;20021;-86
2022/08/13 00:44:14;;;;;;;6.72;6.22;;;;;;;;;;5071271;28;20494;-86
2022/08/13 00:46:44;;;;;;;7.50;6.78;;;;;;;;;;5072174;28;20079;-85
2022/08/13 00:49:11;;;;;;;8.15;7.20;;;;;;;;;;5072411;28;20067;-85
2022/08/13 00:51:39;;;;;;;9.95;7.15;;;;;;;;;;5071497;28;20396;-85
2022/08/13 00:54:06;;;;;;;8.18;7.45;;;;;;;;;;5070978;28;20039;-85
2022/08/13 00:56:35;;;;;;;8.60;7.78;;;;;;;;;;5072462;28;20115;-86
2022/08/13 00:59:10;;;;;;;9.20;8.40;;;;;;;;;;5072150;28;20027;-85
2022/08/13 01:01:38;;;;;;;9.43;8.63;;;;;;;;;;5072375;28;20472;-86
2022/08/13 01:04:05;;;;;;;10.77;8.25;;;;;;;;;;5071063;28;20057;-86
2022/08/13 01:06:35;;;;;;;9.02;8.13;;;;;;;;;;5072185;28;20025;-86
2022/08/13 01:09:01;;;;;;;8.95;8.13;;;;;;;;;;5071085;28;20499;-85
2022/08/13 01:11:28;;;;;;;9.30;8.13;;;;;;;;;;5072162;28;20028;-85
2022/08/13 01:13:57;;;;;;;9.18;8.38;;;;;;;;;;5072201;28;20031;-86
2022/08/13 01:16:23;;;;;;;10.50;9.40;;;;;;;;;;5070982;28;20378;-86
2022/08/13 01:18:51;;;;;;;12.15;9.38;;;;;;;;;;5072138;28;20086;-86
2022/08/13 01:21:19;;;;;;;10.50;9.35;;;;;;;;;;5072099;28;20048;-86
2022/08/13 01:23:46;;;;;;;8.88;8.07;;;;;;;;;;5071968;28;20032;-86
2022/08/13 01:26:13;;;;;;;9.55;8.20;;;;;;;;;;5072018;28;20527;-85
2022/08/13 01:28:40;;;;;;;8.35;7.75;;;;;;;;;;5071810;28;20412;-85
2022/08/13 01:31:07;;;;;;;8.75;7.95;;;;;;;;;;5072199;28;20039;-86
2022/08/13 01:33:38;;;;;;;12.40;8.32;;;;;;;;;;5071821;28;20032;-85
2022/08/13 01:36:05;;;;;;;9.60;8.05;;;;;;;;;;5071938;28;20059;-85
2022/08/13 01:38:31;;;;;;;8.68;7.85;;;;;;;;;;5071817;28;20021;-85
2022/08/13 01:40:58;;;;;;;9.10;8.30;;;;;;;;;;5072039;28;20479;-85
2022/08/13 01:43:30;;;;;;;8.27;7.47;;;;;;;;;;5070525;28;20070;-85
2022/08/13 01:45:59;;;;;;;9.57;8.52;;;;;;;;;;5071784;28;20032;-85
2022/08/13 01:51:21;;;;;;;8.77;8.07;;;;;;;;;;5071824;28;20063;-86
2022/08/13 01:53:49;;;;;;;9.95;9.00;;;;;;;;;;5071942;28;20056;-85
2022/08/13 01:56:16;;;;;;;9.98;9.02;;;;;;;;;;5071560;28;20103;-86
2022/08/13 01:58:47;;;;;;;11.23;10.32;;;;;;;;;;5071885;28;20488;-85
2022/08/13 02:01:14;;;;;;;9.43;8.63;;;;;;;;;;5071441;28;20479;-85
2022/08/13 02:03:43;;;;;;;10.02;9.15;;;;;;;;;;5072399;28;20067;-85
2022/08/13 02:06:13;;;;;;;10.20;9.30;;;;;;;;;;5075257;28;20068;-85
2022/08/13 02:08:40;;;;;;;9.80;9.00;;;;;;;;;;5075395;28;20028;-85
2022/08/13 02:11:07;;;;;;;10.07;9.20;;;;;;;;;;5075148;28;20025;-85
2022/08/13 02:13:33;;;;;;;12.65;9.48;;;;;;;;;;5074214;28;20029;-85
2022/08/13 02:15:59;;;;;;;9.00;8.27;;;;;;;;;;5073815;28;20024;-85
2022/08/13 02:18:26;;;;;;;8.15;7.45;;;;;;;;;;5073809;28;20564;-85
2022/08/13 02:20:59;;;;;;;8.65;7.90;;;;;;;;;;5075003;28;20047;-85
2022/08/13 02:23:31;;;;;;;8.63;7.70;;;;;;;;;;5075086;28;20021;-85
2022/08/13 02:26:01;;;;;;;8.07;7.07;;;;;;;;;;5074885;28;20498;-86
2022/08/13 02:28:32;;;;;;;8.02;7.32;;;;;;;;;;5075056;28;20553;-85
2022/08/13 02:30:58;;;;;;;8.50;7.75;;;;;;;;;;5074866;28;20059;-85
2022/08/13 02:33:25;;;;;;;8.35;7.55;;;;;;;;;;5074885;28;20029;-85
2022/08/13 02:35:51;;;;;;;7.75;7.15;;;;;;;;;;5074685;28;20052;-86
2022/08/13 02:38:18;;;;;;;8.77;8.00;;;;;;;;;;5074839;28;20024;-85
2022/08/13 02:43:31;;;;;;;8.52;7.63;;;;;;;;;;5074895;28;20470;-85
2022/08/13 02:45:58;;;;;;;8.88;8.07;;;;;;;;;;5075025;28;20112;-86
2022/08/13 02:48:25;;;;;;;9.82;8.90;;;;;;;;;;5074510;28;20052;-85
2022/08/13 02:50:52;;;;;;;9.68;8.80;;;;;;;;;;5073648;28;20058;-86
2022/08/13 02:53:19;;;;;;;9.43;8.52;;;;;;;;;;5073618;28;20032;-86
2022/08/13 02:55:49;;;;;;;9.55;8.75;;;;;;;;;;5074505;28;20103;-85
2022/08/13 02:58:16;;;;;;;9.18;8.48;;;;;;;;;;5074567;28;20064;-84
2022/08/13 03:00:48;;;;;;;14.40;13.20;;;;;;;;;;5074426;28;20477;-86
2022/08/13 03:03:15;;;;;;;12.68;11.48;;;;;;;;;;5074462;28;20052;-84
2022/08/13 03:05:41;;;;;;;13.73;11.77;;;;;;;;;;5074324;28;20117;-86
2022/08/13 03:08:07;;;;;;;10.13;9.30;;;;;;;;;;5073119;28;20075;-85
2022/08/13 03:10:33;;;;;;;10.20;9.30;;;;;;;;;;5074043;28;20078;-86
2022/08/13 03:13:02;;;;;;;11.02;9.32;;;;;;;;;;5072386;28;20117;-86
2022/08/13 03:15:29;;;;;;;11.10;9.68;;;;;;;;;;5073239;28;20039;-84
2022/08/13 03:17:55;;;;;;;13.77;10.25;;;;;;;;;;5073936;28;20074;-85
2022/08/13 03:20:21;;;;;;;9.27;8.45;;;;;;;;;;5073877;28;20028;-85
2022/08/13 03:22:54;;;;;;;9.63;8.73;;;;;;;;;;5073738;28;20034;-85
2022/08/13 03:25:21;;;;;;;13.70;9.73;;;;;;;;;;5074063;28;20031;-85
2022/08/13 03:27:48;;;;;;;9.98;9.07;;;;;;;;;;5072459;28;20577;-85
2022/08/13 03:30:15;;;;;;;9.13;8.32;;;;;;;;;;5072644;28;20033;-85
2022/08/13 03:32:42;;;;;;;38.15;34.25;;;;;;;;;;5072337;28;20024;-84
2022/08/13 03:35:09;;;;;;;26.13;23.63;;;;;;;;;;5072652;28;20025;-85
2022/08/13 03:37:37;;;;;;;30.65;27.35;;;;;;;;;;5073390;28;20103;-84
2022/08/13 03:40:03;;;;;;;11.25;10.15;;;;;;;;;;5073814;28;20024;-85
2022/08/13 03:42:29;;;;;;;9.63;8.82;;;;;;;;;;5072318;28;20028;-85
2022/08/13 03:44:56;;;;;;;10.10;9.10;;;;;;;;;;5072688;28;20059;-85
2022/08/13 03:47:23;;;;;;;9.68;8.88;;;;;;;;;;5073281;28;20519;-85
2022/08/13 03:49:49;;;;;;;9.32;8.52;;;;;;;;;;5073368;28;20025;-85
2022/08/13 03:52:15;;;;;;;10.02;9.07;;;;;;;;;;5073439;28;20171;-85
2022/08/13 03:54:41;;;;;;;10.18;9.07;;;;;;;;;;5073105;28;20085;-85
2022/08/13 03:57:08;;;;;;;9.48;8.68;;;;;;;;;;5073493;28;20025;-85
2022/08/13 03:59:34;;;;;;;9.45;8.55;;;;;;;;;;5073135;28;20028;-84
2022/08/13 04:02:01;;;;;;;9.93;9.02;;;;;;;;;;5073097;28;20504;-85
2022/08/13 04:04:27;;;;;;;9.52;8.68;;;;;;;;;;5073156;28;20048;-84
2022/08/13 04:06:54;;;;;;;8.48;7.70;;;;;;;;;;5073014;28;20027;-84
2022/08/13 04:09:20;;;;;;;10.10;8.63;;;;;;;;;;5073156;28;20044;-84
2022/08/13 04:11:46;;;;;;;9.63;8.63;;;;;;;;;;5073025;28;20056;-84
2022/08/13 04:14:13;;;;;;;11.77;8.55;;;;;;;;;;5073192;28;20028;-85
2022/08/13 04:16:41;;;;;;;9.65;8.75;;;;;;;;;;5072963;28;20036;-85
2022/08/13 04:19:08;;;;;;;9.75;8.85;;;;;;;;;;5073047;28;20103;-85
2022/08/13 04:21:37;;;;;;;9.73;8.88;;;;;;;;;;5071564;28;20024;-85
2022/08/13 04:24:03;;;;;;;10.07;9.05;;;;;;;;;;5073164;28;20048;-85
2022/08/13 04:26:30;;;;;;;9.75;8.93;;;;;;;;;;5072720;28;20087;-85
2022/08/13 04:28:57;;;;;;;10.02;9.05;;;;;;;;;;5072720;28;20040;-85
2022/08/13 04:31:24;;;;;;;11.40;10.45;;;;;;;;;;5072927;28;20037;-84
2022/08/13 04:33:50;;;;;;;10.50;9.60;;;;;;;;;;5072424;28;20028;-85
2022/08/13 04:36:17;;;;;;;11.65;10.32;;;;;;;;;;5071704;28;20101;-85
2022/08/13 04:38:43;;;;;;;11.48;10.38;;;;;;;;;;5072470;28;20082;-85
2022/08/13 04:41:09;;;;;;;10.85;9.90;;;;;;;;;;5072689;28;20029;-85
2022/08/13 04:43:36;;;;;;;10.45;9.55;;;;;;;;;;5072423;28;20020;-85
2022/08/13 04:46:02;;;;;;;10.63;9.70;;;;;;;;;;5072538;28;20020;-85
2022/08/13 04:48:32;;;;;;;10.75;9.85;;;;;;;;;;5072161;28;20051;-85
2022/08/13 04:50:58;;;;;;;10.60;9.75;;;;;;;;;;5071241;28;20357;-86
2022/08/13 04:53:26;;;;;;;9.63;8.75;;;;;;;;;;5072484;28;20468;-85
2022/08/13 04:55:52;;;;;;;10.38;9.48;;;;;;;;;;5072655;28;20035;-85
2022/08/13 04:58:18;;;;;;;10.77;9.88;;;;;;;;;;5072686;28;20032;-85
2022/08/13 05:00:45;;;;;;;10.18;9.30;;;;;;;;;;5072123;28;20044;-85
2022/08/13 05:03:15;;;;;;;10.10;9.23;;;;;;;;;;5079475;28;20157;-85
2022/08/13 05:05:43;;;;;;;11.13;10.18;;;;;;;;;;5091087;28;20024;-84
2022/08/13 05:08:10;;;;;;;9.88;9.07;;;;;;;;;;5082104;28;20036;-85
2022/08/13 05:10:40;;;;;;;10.00;9.00;;;;;;;;;;5089461;28;20027;-85
2022/08/13 05:13:22;;;;;;;10.15;9.32;;;;;;;;;;5086972;28;20078;-85
2022/08/13 05:15:48;;;;;;;10.23;9.32;;;;;;;;;;5072161;28;20036;-86
2022/08/13 05:18:15;;;;;;;10.43;9.50;;;;;;;;;;5071210;28;20028;-85
2022/08/13 05:20:42;;;;;;;10.15;9.30;;;;;;;;;;5070797;28;20028;-87
2022/08/13 05:23:08;;;;;;;10.63;9.63;;;;;;;;;;5070702;28;20033;-86
2022/08/13 05:25:35;;;;;;;11.65;10.35;;;;;;;;;;5071993;28;20031;-86
2022/08/13 05:28:01;;;;;;;10.57;9.68;;;;;;;;;;5072092;28;20039;-84
2022/08/13 05:30:27;;;;;;;10.88;9.85;;;;;;;;;;5070912;28;20032;-84
2022/08/13 05:32:57;;;;;;;11.65;10.55;;;;;;;;;;5072273;28;20075;-86
2022/08/13 05:35:24;;;;;;;12.82;11.63;;;;;;;;;;5072160;28;20082;-85
2022/08/13 05:37:50;;;;;;;13.93;12.52;;;;;;;;;;5071604;28;20052;-86
2022/08/13 05:40:16;;;;;;;13.52;12.32;;;;;;;;;;5074888;28;20119;-84
2022/08/13 05:42:43;;;;;;;13.85;12.60;;;;;;;;;;5075925;28;20031;-86
2022/08/13 05:45:09;;;;;;;13.63;12.45;;;;;;;;;;5074797;28;20035;-84
2022/08/13 05:47:36;;;;;;;13.32;12.23;;;;;;;;;;5074073;28;20044;-82
2022/08/13 05:50:12;;;;;;;13.25;12.07;;;;;;;;;;5088572;28;20020;-81
2022/08/13 05:52:39;;;;;;;12.40;11.38;;;;;;;;;;5095802;28;20490;-84
2022/08/13 05:55:06;;;;;;;12.40;11.13;;;;;;;;;;5090585;28;20090;-84
2022/08/13 05:57:32;;;;;;;13.18;12.00;;;;;;;;;;5075209;28;20035;-85
2022/08/13 06:05:28;;;;;;;;;;;;;;;;;;5075965;28;20052;-83
2022/08/13 06:07:55;;;;;;;13.27;12.07;;;;;;;;;;5075420;28;19916;-81
2022/08/13 06:10:21;;;;;;;12.40;11.30;;;;;;;;;;5075739;28;20030;-80
2022/08/13 06:12:47;;;;;;;11.82;10.80;;;;;;;;;;5075623;28;20079;-84
2022/08/13 06:15:13;;;;;;;13.80;12.60;;;;;;;;;;5082609;28;20036;-84
2022/08/13 06:17:41;;;;;;;12.63;11.60;;;;;;;;;;5095605;28;20467;-79
2022/08/13 06:20:07;;;;;;;12.70;11.48;;;;;;;;;;5095504;28;20028;-81
2022/08/13 06:22:34;;;;;;;14.32;13.02;;;;;;;;;;5093993;28;20032;-81
2022/08/13 06:25:02;;;;;;;12.65;11.55;;;;;;;;;;5095404;28;20036;-79
2022/08/13 06:27:28;;;;;;;13.65;12.38;;;;;;;;;;5095594;28;20026;-81
2022/08/13 06:29:58;;;;;;;12.73;11.63;;;;;;;;;;5093013;28;20106;-80
2022/08/13 06:32:25;;;;;;;13.00;11.80;;;;;;;;;;5083759;28;20053;-80
2022/08/13 06:34:51;;;;;;;15.35;13.95;;;;;;;;;;5095121;28;20028;-83
2022/08/13 06:37:18;;;;;;;13.60;12.27;;;;;;;;;;5080387;28;20028;-82
2022/08/13 06:39:45;;;;;;;14.73;13.32;;;;;;;;;;5075040;28;20063;-83
2022/08/13 06:42:12;;;;;;;12.52;11.43;;;;;;;;;;5075072;28;20384;-82
2022/08/13 06:44:39;;;;;;;12.93;11.80;;;;;;;;;;5074925;28;20090;-82
2022/08/13 06:47:06;;;;;;;12.88;11.77;;;;;;;;;;5073225;28;20048;-83
2022/08/13 06:49:33;;;;;;;13.52;12.32;;;;;;;;;;5073272;28;20078;-83
2022/08/13 06:52:00;;;;;;;12.05;11.05;;;;;;;;;;5074528;28;20111;-84
2022/08/13 06:54:26;;;;;;;12.38;11.35;;;;;;;;;;5074398;28;20047;-83
2022/08/13 06:56:53;;;;;;;12.45;11.27;;;;;;;;;;5074364;28;20082;-84
2022/08/13 06:59:23;;;;;;;12.82;11.68;;;;;;;;;;5073456;28;20116;-84
2022/08/13 07:01:53;;;;;;;12.65;11.65;;;;;;;;;;5074463;28;20027;-83
2022/08/13 07:04:20;;;;;;;14.93;13.63;;;;;;;;;;5074587;28;20430;-84
2022/08/13 07:06:49;;;;;;;17.15;15.65;;;;;;;;;;5074422;28;20031;-83
2022/08/13 07:09:17;;;;;;;15.50;14.05;;;;;;;;;;5074464;28;20037;-83
2022/08/13 07:11:44;;;;;;;14.68;13.38;;;;;;;;;;5074231;28;20047;-84
2022/08/13 07:14:10;;;;;;;15.32;13.38;;;;;;;;;;5074647;28;20048;-83
2022/08/13 07:16:37;;;;;;;15.98;14.48;;;;;;;;;;5094696;28;20107;-83
2022/08/13 07:19:03;;;;;;;14.95;13.63;;;;;;;;;;5080390;28;20518;-84
2022/08/13 07:21:30;;;;;;;14.05;12.75;;;;;;;;;;5084176;28;20028;-84
2022/08/13 07:23:56;;;;;;;16.48;14.98;;;;;;;;;;5094111;28;20016;-84
2022/08/13 07:26:24;;;;;;;15.45;13.98;;;;;;;;;;5094259;28;20064;-84
2022/08/13 07:28:51;;;;;;;14.95;13.65;;;;;;;;;;5093805;28;20085;-84
2022/08/13 07:31:19;;;;;;;14.43;12.93;;;;;;;;;;5092905;28;20024;-83
2022/08/13 07:33:51;;;;;;;16.05;14.75;;;;;;;;;;5093875;28;20021;-84
2022/08/13 07:36:19;;;;;;;16.95;15.45;;;;;;;;;;5094141;28;20020;-82
2022/08/13 07:38:46;;;;;;;12.93;11.82;;;;;;;;;;5093726;28;20028;-84
2022/08/13 07:41:13;;;;;;;14.88;13.63;;;;;;;;;;5093833;28;20398;-84
2022/08/13 07:43:43;;;;;;;16.73;15.23;;;;;;;;;;5092565;28;20039;-85
2022/08/13 07:46:10;;;;;;;15.02;13.73;;;;;;;;;;5093909;28;20467;-84
2022/08/13 07:48:38;;;;;;;16.80;15.43;;;;;;;;;;5092187;28;20052;-83
2022/08/13 07:51:05;;;;;;;15.20;13.80;;;;;;;;;;5092803;28;20054;-84
2022/08/13 07:53:34;;;;;;;14.38;13.07;;;;;;;;;;5093834;28;20036;-84
2022/08/13 07:56:00;;;;;;;14.48;13.27;;;;;;;;;;5092264;28;20028;-84
2022/08/13 07:58:28;;;;;;;13.13;12.02;;;;;;;;;;5092497;28;20032;-84
2022/08/13 08:00:57;;;;;;;15.25;13.85;;;;;;;;;;5091972;28;20081;-84
2022/08/13 08:03:46;;;;;;;14.80;13.60;;;;;;;;;;5093819;28;20028;-84
2022/08/13 08:06:15;;;;;;;13.45;12.32;;;;;;;;;;5093617;28;20121;-84
2022/08/13 08:08:42;;;;;;;13.35;12.25;;;;;;;;;;5091967;28;20051;-84
2022/08/13 08:11:09;;;;;;;15.48;14.07;;;;;;;;;;5093693;28;20027;-85
2022/08/13 08:13:35;;;;;;;15.25;13.93;;;;;;;;;;5092326;28;20036;-84
2022/08/13 08:16:03;;;;;;;14.70;13.43;;;;;;;;;;5093427;28;20061;-86
2022/08/13 08:18:30;;;;;;;14.13;12.93;;;;;;;;;;5092360;28;20028;-85
2022/08/13 08:21:15;;;;;;;12.18;11.10;;;;;;;;;;5093644;28;20110;-84
2022/08/13 08:23:42;;;;;;;13.30;11.88;;;;;;;;;;5092850;28;20519;-85
2022/08/13 08:26:09;;;;;;;13.15;12.05;;;;;;;;;;5093611;28;20055;-85
2022/08/13 08:28:35;;;;;;;15.05;13.75;;;;;;;;;;5092960;28;20043;-84
2022/08/13 08:31:06;;;;;;;11.98;10.90;;;;;;;;;;5093066;28;20023;-85
2022/08/13 08:33:34;;;;;;;12.07;11.07;;;;;;;;;;5093248;28;20399;-84
2022/08/13 08:36:02;;;;;;;13.20;12.02;;;;;;;;;;5091870;28;20034;-79
2022/08/13 08:44:00;;;;;;;13.75;12.45;;;;;;;;;;5093115;28;20034;-84
2022/08/13 08:46:33;;;;;;;11.65;10.55;;;;;;;;;;5092747;28;20023;-85
2022/08/13 08:49:04;;;;;;;14.40;13.10;;;;;;;;;;5092930;28;20047;-84
2022/08/13 08:51:31;;;;;;;14.85;13.55;;;;;;;;;;5091558;28;20032;-84
2022/08/13 08:53:57;;;;;;;13.63;12.52;;;;;;;;;;5092372;28;20443;-85
2022/08/13 08:56:24;;;;;;;12.73;11.60;;;;;;;;;;5092911;28;20111;-82
2022/08/13 08:58:54;;;;;;;13.98;12.77;;;;;;;;;;5092447;28;20054;-84
2022/08/13 09:01:24;;;;;;;13.38;12.23;;;;;;;;;;5087663;28;20036;-85
2022/08/13 09:03:50;;;;;;;12.88;11.65;;;;;;;;;;5074782;28;20455;-83
2022/08/13 09:06:17;;;;;;;15.00;13.50;;;;;;;;;;5072629;28;20032;-85
2022/08/13 09:08:46;;;;;;;13.60;12.30;;;;;;;;;;5070275;28;20036;-84
2022/08/13 09:11:14;;;;;;;14.32;12.95;;;;;;;;;;5072560;28;20541;-82
2022/08/13 09:13:49;;;;;;;14.13;12.90;;;;;;;;;;5070109;28;20029;-81
2022/08/13 09:16:18;;;;;;;13.38;12.18;;;;;;;;;;5089976;28;20082;-81
2022/08/13 09:18:44;;;;;;;13.35;12.25;;;;;;;;;;5092445;28;20379;-82
2022/08/13 09:21:10;;;;;;;11.20;10.23;;;;;;;;;;5092587;28;20036;-82
2022/08/13 09:23:42;;;;;;;12.13;11.07;;;;;;;;;;5092143;28;20024;-81
2022/08/13 09:26:10;;;;;;;12.70;11.70;;;;;;;;;;5092371;28;20040;-82
2022/08/13 09:28:38;;;;;;;13.50;12.18;;;;;;;;;;5092292;28;20032;-82
2022/08/13 09:31:04;;;;;;;13.57;12.27;;;;;;;;;;5092121;28;20032;-81
2022/08/13 09:33:31;;;;;;;13.23;12.07;;;;;;;;;;5092024;28;20024;-82
2022/08/13 09:35:57;;;;;;;12.05;10.93;;;;;;;;;;5092043;28;20020;-82
2022/08/13 09:38:24;;;;;;;12.50;11.40;;;;;;;;;;5092134;28;20051;-82
2022/08/13 09:40:54;;;;;;;13.48;12.38;;;;;;;;;;5091908;28;20038;-82
2022/08/13 09:43:23;;;;;;;13.48;12.38;;;;;;;;;;5092403;28;20030;-82
2022/08/13 09:45:49;;;;;;;16.25;14.73;;;;;;;;;;5092030;28;20382;-82
2022/08/13 09:48:15;;;;;;;14.13;12.82;;;;;;;;;;5091979;28;20410;-82
2022/08/13 09:50:41;;;;;;;16.42;14.93;;;;;;;;;;5092104;28;20040;-82
2022/08/13 09:53:08;;;;;;;14.98;13.68;;;;;;;;;;5092184;28;20074;-82
2022/08/13 09:55:37;;;;;;;12.23;11.20;;;;;;;;;;5092210;28;20112;-82
2022/08/13 09:58:04;;;;;;;11.80;10.80;;;;;;;;;;5092060;28;20426;-81
2022/08/13 10:00:32;;;;;;;11.10;10.15;;;;;;;;;;5092148;28;20028;-82
2022/08/13 10:03:04;;;;;;;10.18;9.18;;;;;;;;;;5091785;28;20510;-82
2022/08/13 10:05:34;;;;;;;10.35;9.45;;;;;;;;;;5092134;28;20024;-82
2022/08/13 10:08:01;;;;;;;9.07;8.23;;;;;;;;;;5091957;28;20036;-83
2022/08/13 10:10:27;;;;;;;8.63;7.85;;;;;;;;;;5092148;28;20499;-82
2022/08/13 10:12:53;;;;;;;6.63;6.03;;;;;;;;;;5091985;28;20416;-82
2022/08/13 10:15:20;;;;;;;7.53;6.93;;;;;;;;;;5091983;28;20028;-82
2022/08/13 10:17:55;;;;;;;10.80;9.90;;;;;;;;;;5091694;28;20111;-82
2022/08/13 10:20:41;;;;;;;8.73;8.02;;;;;;;;;;5091912;28;20020;-82
2022/08/13 10:23:09;;;;;;;8.45;7.75;;;;;;;;;;5091973;28;20069;-82
2022/08/13 10:25:37;;;;;;;8.23;7.53;;;;;;;;;;5095070;28;20475;-82
2022/08/13 10:28:14;;;;;;;8.05;7.35;;;;;;;;;;5095397;28;20040;-81
2022/08/13 10:30:42;;;;;;;7.90;7.30;;;;;;;;;;5095048;28;20024;-83
2022/08/13 10:33:09;;;;;;;41.55;37.85;;;;;;;;;;5080977;28;20040;-83
2022/08/13 10:35:35;;;;;;;11.63;10.48;;;;;;;;;;5075022;28;20186;-82
2022/08/13 10:38:02;;;;;;;7.30;6.70;;;;;;;;;;5074983;28;20086;-82
2022/08/13 10:40:29;;;;;;;8.02;6.85;;;;;;;;;;5078479;28;20424;-82
2022/08/13 10:42:55;;;;;;;7.70;6.97;;;;;;;;;;5089966;28;20113;-81
2022/08/13 10:45:26;;;;;;;7.90;7.20;;;;;;;;;;5089299;28;20095;-81
2022/08/13 10:47:54;;;;;;;6.63;6.13;;;;;;;;;;5084580;28;20048;-82
2022/08/13 10:50:29;;;;;;;7.55;7.00;;;;;;;;;;5074810;28;20067;-83
2022/08/13 10:52:56;;;;;;;27.10;24.35;;;;;;;;;;5074421;28;20039;-83
2022/08/13 10:55:22;;;;;;;16.75;15.35;;;;;;;;;;5090694;28;20041;-83
2022/08/13 10:57:48;;;;;;;7.88;7.18;;;;;;;;;;5094950;28;20028;-83
2022/08/13 11:00:16;;;;;;;7.28;6.68;;;;;;;;;;5094786;28;20052;-82
2022/08/13 11:02:43;;;;;;;8.27;7.57;;;;;;;;;;5093734;28;20027;-83
2022/08/13 11:05:10;;;;;;;7.47;6.82;;;;;;;;;;5094521;28;20039;-81
2022/08/13 11:07:39;;;;;;;6.40;5.90;;;;;;;;;;5094751;28;20093;-82
2022/08/13 11:10:06;;;;;;;7.35;6.68;;;;;;;;;;5094479;28;20032;-82
2022/08/13 11:12:33;;;;;;;6.50;6.00;;;;;;;;;;5094718;28;20032;-83
2022/08/13 11:15:00;;;;;;;7.45;6.75;;;;;;;;;;5094403;28;20036;-83
2022/08/13 11:17:26;;;;;;;6.85;6.25;;;;;;;;;;5094602;28;20024;-83
2022/08/13 11:19:53;;;;;;;7.10;6.60;;;;;;;;;;5094412;28;20043;-82
2022/08/13 11:22:28;;;;;;;6.07;5.57;;;;;;;;;;5093203;28;20028;-83
2022/08/13 11:24:59;;;;;;;6.57;6.10;;;;;;;;;;5094139;28;20024;-84
2022/08/13 11:27:25;;;;;;;6.50;6.00;;;;;;;;;;5094188;28;20024;-83
2022/08/13 11:29:53;;;;;;;6.95;6.25;;;;;;;;;;5094186;28;20028;-83
2022/08/13 11:32:19;;;;;;;7.28;6.68;;;;;;;;;;5094298;28;20027;-83
2022/08/13 11:34:45;;;;;;;7.82;7.15;;;;;;;;;;5092916;28;20429;-82
2022/08/13 11:37:11;;;;;;;6.28;5.78;;;;;;;;;;5093392;28;20081;-83
2022/08/13 11:39:38;;;;;;;6.47;5.97;;;;;;;;;;5094244;28;20557;-82
2022/08/13 11:42:04;;;;;;;7.03;6.47;;;;;;;;;;5093740;28;20024;-83
2022/08/13 11:44:30;;;;;;;6.60;6.10;;;;;;;;;;5094123;28;20024;-84
2022/08/13 11:46:56;;;;;;;6.68;6.07;;;;;;;;;;5080697;28;20115;-82
2022/08/13 11:49:22;;;;;;;6.57;5.97;;;;;;;;;;5093176;28;20061;-83
2022/08/13 11:51:51;;;;;;;6.82;6.20;;;;;;;;;;5093830;28;20091;-81
2022/08/13 11:54:19;;;;;;;7.25;6.65;;;;;;;;;;5093814;28;20028;-81
2022/08/13 11:56:45;;;;;;;7.30;6.80;;;;;;;;;;5093846;28;20486;-82
2022/08/13 11:59:12;;;;;;;6.70;6.18;;;;;;;;;;5092873;28;20081;-83
2022/08/13 12:01:38;;;;;;;7.28;6.70;;;;;;;;;;5093718;28;20161;-82
2022/08/13 12:04:04;;;;;;;6.65;6.05;;;;;;;;;;5093515;28;20352;-82
2022/08/13 12:06:30;;;;;;;6.78;6.28;;;;;;;;;;5093599;28;20041;-82
2022/08/13 12:08:56;;;;;;;6.57;6.07;;;;;;;;;;5093454;28;20032;-82
2022/08/13 12:11:23;;;;;;;6.40;5.90;;;;;;;;;;5093604;28;20103;-81
2022/08/13 12:13:49;;;;;;;6.90;6.40;;;;;;;;;;5093473;28;20032;-82
2022/08/13 12:16:15;;;;;;;6.78;6.03;;;;;;;;;;5093171;28;20020;-82
2022/08/13 12:18:41;;;;;;;6.22;5.72;;;;;;;;;;5093508;28;20141;-82
2022/08/13 12:21:07;;;;;;;30.08;27.08;;;;;;;;;;5093204;28;20494;-82
2022/08/13 12:23:33;;;;;;;7.82;7.22;;;;;;;;;;5093410;28;20028;-82
2022/08/13 12:25:59;;;;;;;6.88;6.38;;;;;;;;;;5093104;28;20493;-82
2022/08/13 12:28:27;;;;;;;6.95;6.45;;;;;;;;;;5093021;28;20078;-81
2022/08/13 12:30:56;;;;;;;7.32;6.72;;;;;;;;;;5093097;28;20036;-81
2022/08/13 12:33:23;;;;;;;8.68;7.97;;;;;;;;;;5093056;28;20028;-82
2022/08/13 12:35:50;;;;;;;6.45;5.95;;;;;;;;;;5092771;28;20028;-82
2022/08/13 12:38:16;;;;;;;7.22;6.63;;;;;;;;;;5092703;28;20356;-82
2022/08/13 12:40:43;;;;;;;7.75;7.15;;;;;;;;;;5092939;28;20032;-82
2022/08/13 12:43:10;;;;;;;9.85;9.10;;;;;;;;;;5092534;28;20055;-82
2022/08/13 12:45:37;;;;;;;9.32;8.63;;;;;;;;;;5092719;28;20028;-82
2022/08/13 12:48:07;;;;;;;7.70;7.07;;;;;;;;;;5092354;28;20138;-82
2022/08/13 12:50:34;;;;;;;7.15;6.55;;;;;;;;;;5092897;28;20891;-82
2022/08/13 12:53:00;;;;;;;7.20;6.70;;;;;;;;;;5090768;28;20426;-82
2022/08/13 12:55:26;;;;;;;6.75;6.25;;;;;;;;;;5092748;28;20028;-82
2022/08/13 12:57:52;;;;;;;7.25;6.65;;;;;;;;;;5092790;28;20507;-83
2022/08/13 13:00:18;;;;;;;6.65;6.15;;;;;;;;;;5092591;28;20076;-84
2022/08/13 13:02:45;;;;;;;6.75;6.25;;;;;;;;;;5092776;28;20030;-83
2022/08/13 13:05:11;;;;;;;6.43;5.97;;;;;;;;;;5092515;28;20474;-82
2022/08/13 13:07:37;;;;;;;6.75;6.25;;;;;;;;;;5092447;28;20024;-83
2022/08/13 13:10:04;;;;;;;6.88;6.30;;;;;;;;;;5092495;28;20052;-84
2022/08/13 13:12:31;;;;;;;6.15;5.75;;;;;;;;;;5092306;28;20054;-85
2022/08/13 13:14:57;;;;;;;6.60;6.10;;;;;;;;;;5092548;28;20024;-83
2022/08/13 13:17:23;;;;;;;6.60;6.10;;;;;;;;;;5092432;28;20036;-83
2022/08/13 13:19:49;;;;;;;24.52;22.27;;;;;;;;;;5092687;28;20024;-83
2022/08/13 13:22:15;;;;;;;9.73;8.77;;;;;;;;;;5092200;28;20496;-83
2022/08/13 13:24:41;;;;;;;7.35;6.75;;;;;;;;;;5092569;28;20028;-83
2022/08/13 13:27:08;;;;;;;6.50;6.07;;;;;;;;;;5092411;28;20035;-85
2022/08/13 13:29:38;;;;;;;6.47;6.07;;;;;;;;;;5092404;28;20036;-82
2022/08/13 13:32:11;;;;;;;5.95;5.55;;;;;;;;;;5092465;28;20440;-84
2022/08/13 13:34:38;;;;;;;14.15;13.02;;;;;;;;;;5092862;28;20031;-83
2022/08/13 13:37:04;;;;;;;6.90;6.30;;;;;;;;;;5092278;28;20046;-83
2022/08/13 13:39:32;;;;;;;5.85;5.30;;;;;;;;;;5092257;28;20077;-82
2022/08/13 13:41:58;;;;;;;5.78;5.38;;;;;;;;;;5092283;28;20085;-82
2022/08/13 13:44:24;;;;;;;9.35;8.65;;;;;;;;;;5092116;28;20028;-83
2022/08/13 13:46:50;;;;;;;8.23;7.63;;;;;;;;;;5092254;28;20131;-83
2022/08/13 13:49:16;;;;;;;5.88;5.47;;;;;;;;;;5092037;28;20487;-83
2022/08/13 13:51:42;;;;;;;5.53;5.18;;;;;;;;;;5092336;28;20058;-83
2022/08/13 13:54:08;;;;;;;5.60;5.20;;;;;;;;;;5091964;28;20055;-82
2022/08/13 13:56:35;;;;;;;5.82;5.32;;;;;;;;;;5091941;28;20024;-83
2022/08/13 13:59:01;;;;;;;5.38;4.97;;;;;;;;;;5093374;28;20020;-83
2022/08/13 14:01:27;;;;;;;6.15;5.65;;;;;;;;;;5095658;28;20064;-83
2022/08/13 14:03:54;;;;;;;5.28;4.88;;;;;;;;;;5096057;28;20028;-83
2022/08/13 14:06:20;;;;;;;5.57;5.18;;;;;;;;;;5094503;28;20031;-83
2022/08/13 14:08:52;;;;;;;6.00;5.60;;;;;;;;;;5095620;28;20111;-82
2022/08/13 14:11:19;;;;;;;6.07;5.47;;;;;;;;;;5095520;28;20051;-83
2022/08/13 14:13:46;;;;;;;5.80;5.40;;;;;;;;;;5095820;28;20024;-85
2022/08/13 14:16:13;;;;;;;6.10;5.60;;;;;;;;;;5095558;28;20463;-84
2022/08/13 14:18:40;;;;;;;5.82;5.43;;;;;;;;;;5094447;28;20032;-82
2022/08/13 14:21:07;;;;;;;5.93;5.47;;;;;;;;;;5094396;28;20422;-84
2022/08/13 14:23:37;;;;;;;6.18;5.78;;;;;;;;;;5094048;28;20437;-83
2022/08/13 14:26:08;;;;;;;5.85;5.45;;;;;;;;;;5094130;28;20038;-84
2022/08/13 14:28:42;;;;;;;5.35;4.95;;;;;;;;;;5095467;28;20036;-83
2022/08/13 14:31:10;;;;;;;5.65;5.25;;;;;;;;;;5095148;28;20077;-83
2022/08/13 14:33:39;;;;;;;5.35;4.95;;;;;;;;;;5095150;28;20058;-83
2022/08/13 14:36:05;;;;;;;6.30;5.82;;;;;;;;;;5095111;28;20459;-83
2022/08/13 14:38:31;;;;;;;6.40;5.90;;;;;;;;;;5094216;28;20028;-84
2022/08/13 14:41:01;;;;;;;6.28;5.78;;;;;;;;;;5093981;28;20458;-83
2022/08/13 14:43:28;;;;;;;4.55;4.25;;;;;;;;;;5095350;28;20061;-83
2022/08/13 14:45:55;;;;;;;4.70;4.40;;;;;;;;;;5095196;28;20023;-84
2022/08/13 14:48:22;;;;;;;4.65;4.30;;;;;;;;;;5093487;28;20503;-83
2022/08/13 14:50:48;;;;;;;4.40;4.10;;;;;;;;;;5095198;28;20568;-83
2022/08/13 14:53:18;;;;;;;4.80;4.40;;;;;;;;;;5094929;28;20028;-83
2022/08/13 14:55:45;;;;;;;4.63;4.32;;;;;;;;;;5095083;28;20032;-83